Brevnov, Czech Republic

12:59 PM CEST on May 23, 2017 (GMT +0200)
Prague Sterboholy | | Change Station

Elev 781 ft 50.08 °N, 14.55 °E | Updated 47 days ago

Partly Cloudy
Partly Cloudy
56.1 °F
Feels Like 56.1 °F
N
3.0
Wind Variable Wind from West
Gusts 7.0 mph

Today
High -- | Low -- °F
--% Chance of Precip.
Yesterday
High -- | Low -- °F
Precip. -- in
Pressure 30.04 in
Visibility 6.2 miles
Clouds Scattered Clouds 4500 ft
Dew Point 45.2 °F
Humidity 67%
Rainfall 0.00 in
Snow Depth Not available.
5:06 AM 8:53 PM
Waning Crescent, 8% visible
METAR LKPR 231030Z 32004KT 290V010 9999 SCT045 21/09 Q1017 NOSIG
Pressure 30.04 in
Visibility 6.2 miles
Clouds Scattered Clouds 4500 ft
Dew Point 45.2 °F
Humidity 67%
Rainfall 0.00 in
Snow Depth Not available.
5:06 AM 8:53 PM
Waning Crescent, 8% visible
METAR LKPR 231030Z 32004KT 290V010 9999 SCT045 21/09 Q1017 NOSIG

Get Severe Weather Alerts

Thanks for signing up!

Be on the lookout for a verification email in your inbox.

You'll start receiving the daily forecast at 6 AM.

×

10-Day Weather Forecast

×

Almanac

Astronomy

May. 23, 2017 Rise Set
Actual Time
Civil Twilight
Nautical Twilight
Astronomical Twilight
Moon
Length of Visible Light
Length of Day
Tomorrow will be .
, % of the Moon is Illuminated

Today's Extremes

Country Highs Country Lows

Community

WunderPhotos

Category 6

Welcome to Category 6. This is the collective home for Weather Underground's featured writeups by Dr. Jeff Masters (right), Bob Henson (left), Chris Burt, and other regular contributors.

Nearby

Air Quality

  Air Quality AQ Index Pollutant
Not available.

Snow Depth

Station Depth Elevation

Earthquake Activity

City Distance Mag. Time & Date
Minimum magnitude displayed is 2.5.

Coastal Water Temperatures

Place Temperature

Stations

Nearby Weather Stations

Station Location Temp. Windchill Dew Point Humidity Wind Precip. Elev Updated Type